createdAt,value
2017-02-15T00:00:05.905Z,0
2017-02-15T00:01:16.628Z,0
2017-02-15T00:02:26.931Z,0
2017-02-15T00:03:37.702Z,0
2017-02-15T00:04:48.008Z,0
2017-02-15T00:05:58.709Z,0
2017-02-15T00:07:09.417Z,0
2017-02-15T00:08:20.106Z,0
2017-02-15T00:09:30.820Z,0
2017-02-15T00:10:41.535Z,0
2017-02-15T00:11:52.227Z,0
2017-02-15T00:13:02.937Z,0
2017-02-15T00:14:13.627Z,0
2017-02-15T00:15:24.320Z,0
2017-02-15T00:16:34.640Z,0
2017-02-15T00:17:45.347Z,0
2017-02-15T00:18:55.654Z,0
2017-02-15T00:20:05.954Z,0
2017-02-15T00:21:16.281Z,0
2017-02-15T00:22:26.977Z,0
2017-02-15T00:23:37.676Z,0
2017-02-15T00:24:47.988Z,0
2017-02-15T00:25:58.689Z,0
2017-02-15T00:27:09.394Z,0
2017-02-15T00:28:20.097Z,0
2017-02-15T00:29:30.816Z,0
2017-02-15T00:30:41.530Z,0
2017-02-15T00:31:52.239Z,0
2017-02-15T00:33:02.945Z,0
2017-02-15T00:34:13.774Z,0
2017-02-15T00:35:24.095Z,0
2017-02-15T00:36:34.017Z,0
2017-02-15T00:37:44.723Z,0
2017-02-15T00:38:55.417Z,0
2017-02-15T00:40:06.143Z,0
2017-02-15T00:41:16.454Z,0
2017-02-15T00:42:27.158Z,0
2017-02-15T00:43:37.469Z,0
2017-02-15T00:44:47.784Z,0
2017-02-15T00:45:58.506Z,0
2017-02-15T00:47:09.207Z,0
2017-02-15T00:48:19.909Z,0
2017-02-15T00:49:30.236Z,0
2017-02-15T00:50:40.938Z,0
2017-02-15T00:51:51.640Z,0
2017-02-15T00:53:02.341Z,0
2017-02-15T00:54:13.045Z,0
2017-02-15T00:55:23.347Z,0
2017-02-15T00:56:34.055Z,0
2017-02-15T00:57:44.769Z,0
2017-02-15T00:58:55.493Z,0
2017-02-15T01:00:06.220Z,0
2017-02-15T01:01:16.922Z,0
2017-02-15T01:02:27.234Z,0
2017-02-15T01:03:37.943Z,0
2017-02-15T01:04:48.661Z,0
2017-02-15T01:05:59.366Z,0
2017-02-15T01:07:09.677Z,0
2017-02-15T01:08:20.375Z,0
2017-02-15T01:09:30.697Z,0
2017-02-15T01:10:41.442Z,0
2017-02-15T01:11:52.150Z,0
2017-02-15T01:13:02.862Z,0
2017-02-15T01:14:13.174Z,0
2017-02-15T01:15:23.907Z,0
2017-02-15T01:16:34.626Z,0
2017-02-15T01:17:45.350Z,0
2017-02-15T01:18:55.657Z,0
2017-02-15T01:20:06.386Z,0
2017-02-15T01:21:17.093Z,0
2017-02-15T01:22:27.427Z,0
2017-02-15T01:23:38.155Z,0
2017-02-15T01:24:48.871Z,0
2017-02-15T01:25:59.577Z,0
2017-02-15T01:27:09.875Z,0
2017-02-15T01:28:20.581Z,0
2017-02-15T01:29:31.317Z,0
2017-02-15T01:30:42.034Z,0
2017-02-15T01:31:52.744Z,0
2017-02-15T01:33:03.444Z,0
2017-02-15T01:34:14.167Z,0
2017-02-15T01:35:24.477Z,0
2017-02-15T01:36:34.803Z,0
2017-02-15T01:37:45.504Z,0
2017-02-15T01:38:55.821Z,0
2017-02-15T01:40:06.520Z,0
2017-02-15T01:41:16.849Z,0
2017-02-15T01:42:27.546Z,0
2017-02-15T01:43:38.255Z,0
2017-02-15T01:44:48.951Z,0
2017-02-15T01:45:59.656Z,0
2017-02-15T01:47:10.355Z,0
2017-02-15T01:48:21.058Z,0
2017-02-15T01:49:31.405Z,0
2017-02-15T01:50:42.108Z,0
2017-02-15T01:51:52.813Z,0
2017-02-15T01:53:03.522Z,0
2017-02-15T01:54:14.248Z,0
2017-02-15T01:55:24.967Z,0
2017-02-15T01:56:35.299Z,0
2017-02-15T01:57:45.996Z,0
2017-02-15T01:58:56.704Z,0
2017-02-15T02:00:07.009Z,0
2017-02-15T02:01:17.712Z,0
2017-02-15T02:02:28.434Z,0
2017-02-15T02:03:39.150Z,0
2017-02-15T02:04:49.859Z,0
2017-02-15T02:06:00.562Z,0
2017-02-15T02:07:11.273Z,0
2017-02-15T02:08:21.975Z,0
2017-02-15T02:09:32.678Z,0
2017-02-15T02:10:43.382Z,0
2017-02-15T02:11:54.096Z,0
2017-02-15T02:13:04.393Z,0
2017-02-15T02:14:14.701Z,0
2017-02-15T02:15:25.404Z,0
2017-02-15T02:16:36.105Z,0
2017-02-15T02:17:46.419Z,0
2017-02-15T02:18:57.163Z,0
2017-02-15T02:20:07.486Z,0
2017-02-15T02:21:18.190Z,0
2017-02-15T02:22:28.897Z,0
2017-02-15T02:23:39.626Z,0
2017-02-15T02:24:50.321Z,0
2017-02-15T02:26:01.030Z,0
2017-02-15T02:27:11.729Z,0
2017-02-15T02:28:22.444Z,0
2017-02-15T02:29:32.762Z,0
2017-02-15T02:30:43.491Z,0
2017-02-15T02:31:54.213Z,0
2017-02-15T02:33:04.919Z,0
2017-02-15T02:34:15.643Z,0
2017-02-15T02:35:26.357Z,0
2017-02-15T02:36:36.273Z,0
2017-02-15T02:37:46.991Z,0
2017-02-15T02:38:57.691Z,0
2017-02-15T02:40:07.995Z,0
2017-02-15T02:41:17.943Z,0
2017-02-15T02:42:28.638Z,0
2017-02-15T02:43:39.338Z,0
2017-02-15T02:44:50.041Z,0
2017-02-15T02:46:00.348Z,0
2017-02-15T02:47:10.681Z,0
2017-02-15T02:48:20.980Z,0
2017-02-15T02:49:31.982Z,0
2017-02-15T02:50:42.702Z,0
2017-02-15T02:51:53.423Z,0
2017-02-15T02:53:03.721Z,0
2017-02-15T02:54:14.015Z,0
2017-02-15T02:55:24.717Z,0
2017-02-15T02:56:35.431Z,0
2017-02-15T02:57:46.128Z,0
2017-02-15T02:58:56.846Z,0
2017-02-15T03:00:07.548Z,0
2017-02-15T03:01:17.458Z,0
2017-02-15T03:02:28.151Z,0
2017-02-15T03:03:38.861Z,0
2017-02-15T03:04:49.567Z,0
2017-02-15T03:06:00.271Z,0
2017-02-15T03:07:13.398Z,0
2017-02-15T03:08:23.715Z,0
2017-02-15T03:09:34.440Z,0
2017-02-15T03:10:45.140Z,0
2017-02-15T03:11:55.852Z,0
2017-02-15T03:13:06.564Z,0
2017-02-15T03:14:17.268Z,0
2017-02-15T03:15:27.973Z,0
2017-02-15T03:16:38.681Z,0
2017-02-15T03:17:49.377Z,0
2017-02-15T03:19:00.100Z,0
2017-02-15T03:20:10.827Z,0
2017-02-15T03:21:21.546Z,0
2017-02-15T03:22:32.263Z,0
2017-02-15T03:23:42.994Z,0
2017-02-15T03:24:54.055Z,0
2017-02-15T03:26:04.761Z,0
2017-02-15T03:27:15.469Z,0
2017-02-15T03:28:26.194Z,0
2017-02-15T03:29:36.506Z,0
2017-02-15T03:30:47.219Z,0
2017-02-15T03:31:57.935Z,0
2017-02-15T03:33:08.651Z,0
2017-02-15T03:34:19.381Z,0
2017-02-15T03:35:30.100Z,0
2017-02-15T03:36:40.815Z,0
2017-02-15T03:37:51.515Z,0
2017-02-15T03:39:02.236Z,0
2017-02-15T03:40:12.952Z,0
2017-02-15T03:41:23.675Z,0
2017-02-15T03:42:34.390Z,0
2017-02-15T03:43:45.095Z,0
2017-02-15T03:44:55.793Z,0
2017-02-15T03:46:06.515Z,0
2017-02-15T03:47:17.211Z,0
2017-02-15T03:48:27.926Z,0
2017-02-15T03:49:38.633Z,0
2017-02-15T03:50:49.350Z,0
2017-02-15T03:52:00.072Z,0
2017-02-15T03:53:10.783Z,0
2017-02-15T03:54:21.508Z,0
2017-02-15T03:55:31.838Z,0
2017-02-15T03:56:42.550Z,0
2017-02-15T03:57:53.296Z,0
2017-02-15T03:59:03.999Z,0
2017-02-15T04:00:14.716Z,0
2017-02-15T04:01:25.429Z,0
2017-02-15T04:02:36.134Z,0
2017-02-15T04:03:46.863Z,0
2017-02-15T04:04:57.592Z,0
2017-02-15T04:06:07.900Z,0
2017-02-15T04:07:18.599Z,0
2017-02-15T04:08:29.311Z,0
2017-02-15T04:09:40.015Z,0
2017-02-15T04:10:50.727Z,0
2017-02-15T04:12:01.425Z,0
2017-02-15T04:13:12.138Z,0
2017-02-15T04:14:22.479Z,0
2017-02-15T04:15:33.207Z,0
2017-02-15T04:16:43.905Z,0
2017-02-15T04:17:54.624Z,0
2017-02-15T04:19:05.344Z,0
2017-02-15T04:20:16.064Z,0
2017-02-15T04:21:26.774Z,0
2017-02-15T04:22:37.487Z,0
2017-02-15T04:23:48.238Z,0
2017-02-15T04:24:58.962Z,0
2017-02-15T04:26:09.666Z,0
2017-02-15T04:27:20.368Z,0
2017-02-15T04:28:31.081Z,0
2017-02-15T04:29:41.793Z,0
2017-02-15T04:30:52.512Z,0
2017-02-15T04:32:03.241Z,0
2017-02-15T04:33:13.569Z,0
2017-02-15T04:34:24.274Z,0
2017-02-15T04:35:34.605Z,0
2017-02-15T04:36:45.312Z,0
2017-02-15T04:37:56.008Z,0
2017-02-15T04:39:06.323Z,0
2017-02-15T04:40:15.847Z,0
2017-02-15T04:41:26.559Z,0
2017-02-15T04:42:36.878Z,0
2017-02-15T04:43:47.616Z,0
2017-02-15T04:44:58.322Z,0
2017-02-15T04:46:08.633Z,0
2017-02-15T04:47:19.357Z,0
2017-02-15T04:48:30.060Z,0
2017-02-15T04:49:40.774Z,0
2017-02-15T04:50:51.095Z,0
2017-02-15T04:52:01.797Z,0
2017-02-15T04:53:12.108Z,0
2017-02-15T04:54:22.403Z,0
2017-02-15T04:55:33.116Z,0
2017-02-15T04:56:43.824Z,0
2017-02-15T04:57:54.530Z,0
2017-02-15T04:59:05.232Z,0
2017-02-15T05:00:15.941Z,0
2017-02-15T05:01:26.648Z,0
2017-02-15T05:02:37.380Z,0
2017-02-15T05:03:47.690Z,0
2017-02-15T05:04:58.405Z,0
2017-02-15T05:06:08.707Z,0
2017-02-15T05:07:19.415Z,0
2017-02-15T05:08:30.147Z,0
2017-02-15T05:09:40.849Z,0
2017-02-15T05:10:50.786Z,0
2017-02-15T05:12:01.488Z,0
2017-02-15T05:13:12.211Z,0
2017-02-15T05:14:22.523Z,0
2017-02-15T05:15:33.214Z,0
2017-02-15T05:16:43.129Z,0
2017-02-15T05:17:53.896Z,0
2017-02-15T05:19:04.594Z,0
2017-02-15T05:20:15.310Z,0
2017-02-15T05:21:26.018Z,0
2017-02-15T05:22:36.744Z,0
2017-02-15T05:23:47.451Z,0
2017-02-15T05:24:58.180Z,0
2017-02-15T05:26:08.908Z,0
2017-02-15T05:27:19.611Z,0
2017-02-15T05:28:30.316Z,0
2017-02-15T05:29:41.043Z,0
2017-02-15T05:30:51.742Z,0
2017-02-15T05:32:02.460Z,0
2017-02-15T05:33:13.171Z,0
2017-02-15T05:34:23.879Z,0
2017-02-15T05:35:34.588Z,0
2017-02-15T05:36:44.902Z,0
2017-02-15T05:37:55.625Z,0
2017-02-15T05:39:06.325Z,0
2017-02-15T05:40:17.029Z,0
2017-02-15T05:41:27.732Z,0
2017-02-15T05:42:38.064Z,0
2017-02-15T05:43:48.756Z,0
2017-02-15T05:44:59.466Z,0
2017-02-15T05:46:10.163Z,0
2017-02-15T05:47:20.460Z,0
2017-02-15T05:48:31.164Z,0
2017-02-15T05:49:41.088Z,0
2017-02-15T05:50:51.794Z,0
2017-02-15T05:52:02.521Z,0
2017-02-15T05:53:12.834Z,0
2017-02-15T05:54:23.154Z,0
2017-02-15T05:55:33.875Z,0
2017-02-15T05:56:44.582Z,0
2017-02-15T05:57:55.280Z,0
2017-02-15T05:59:05.989Z,0
2017-02-15T06:00:16.305Z,0
2017-02-15T06:01:27.032Z,0
2017-02-15T06:02:37.764Z,0
2017-02-15T06:03:48.071Z,0
2017-02-15T06:04:58.774Z,0
2017-02-15T06:06:09.478Z,0
2017-02-15T06:07:20.198Z,0
2017-02-15T06:08:30.499Z,0
2017-02-15T06:09:41.214Z,0
2017-02-15T06:10:51.926Z,0
2017-02-15T06:12:02.662Z,0
2017-02-15T06:13:13.373Z,0
2017-02-15T06:14:24.087Z,0
2017-02-15T06:15:34.808Z,0
2017-02-15T06:16:45.522Z,0
2017-02-15T06:17:56.220Z,0
2017-02-15T06:19:06.938Z,0
2017-02-15T06:20:16.870Z,0
2017-02-15T06:21:27.215Z,0
2017-02-15T06:22:37.939Z,0
2017-02-15T06:23:48.648Z,0
2017-02-15T06:24:59.343Z,0
2017-02-15T06:26:09.667Z,0
2017-02-15T06:27:20.402Z,0
2017-02-15T06:28:30.701Z,0
2017-02-15T06:29:41.407Z,0
2017-02-15T06:30:52.106Z,0
2017-02-15T06:32:02.805Z,0
2017-02-15T06:33:13.505Z,0
2017-02-15T06:34:24.217Z,0
2017-02-15T06:35:34.933Z,0
2017-02-15T06:36:45.647Z,0
2017-02-15T06:37:56.362Z,0
2017-02-15T06:39:07.082Z,0
2017-02-15T06:40:17.787Z,0
2017-02-15T06:41:28.501Z,0
2017-02-15T06:42:39.208Z,0
2017-02-15T06:43:49.925Z,0
2017-02-15T06:45:00.642Z,0
2017-02-15T06:46:11.363Z,0
2017-02-15T06:47:21.696Z,5
2017-02-15T06:48:32.394Z,5
2017-02-15T06:49:43.099Z,5
2017-02-15T06:50:53.427Z,5
2017-02-15T06:52:04.144Z,5
2017-02-15T06:53:14.869Z,5
2017-02-15T06:54:25.574Z,5
2017-02-15T06:55:36.310Z,10
2017-02-15T06:56:47.021Z,10
2017-02-15T06:57:57.748Z,10
2017-02-15T06:59:08.455Z,10
2017-02-15T07:00:18.755Z,10
2017-02-15T07:01:29.458Z,10
2017-02-15T07:02:40.497Z,15
2017-02-15T07:03:50.807Z,15
2017-02-15T07:05:01.539Z,15
2017-02-15T07:06:11.460Z,15
2017-02-15T07:07:21.778Z,20
2017-02-15T07:08:32.497Z,20
2017-02-15T07:09:43.199Z,20
2017-02-15T07:10:53.522Z,20
2017-02-15T07:12:04.229Z,25
2017-02-15T07:13:14.926Z,25
2017-02-15T07:14:25.626Z,25
2017-02-15T07:15:35.943Z,30
2017-02-15T07:16:46.667Z,30
2017-02-15T07:17:56.985Z,30
2017-02-15T07:19:07.286Z,30
2017-02-15T07:20:17.195Z,30
2017-02-15T07:21:27.490Z,35
2017-02-15T07:22:38.203Z,35
2017-02-15T07:23:48.524Z,35
2017-02-15T07:24:59.234Z,35
2017-02-15T07:26:09.549Z,40
2017-02-15T07:27:19.857Z,40
2017-02-15T07:28:30.578Z,45
2017-02-15T07:29:41.282Z,45
2017-02-15T07:30:51.985Z,45
2017-02-15T07:32:02.700Z,50
2017-02-15T07:33:13.426Z,50
2017-02-15T07:34:23.733Z,55
2017-02-15T07:35:33.641Z,55
2017-02-15T07:36:44.363Z,60
2017-02-15T07:37:55.090Z,60
2017-02-15T07:39:05.803Z,60
2017-02-15T07:40:16.509Z,60
2017-02-15T07:41:26.825Z,60
2017-02-15T07:42:37.518Z,60
2017-02-15T07:43:48.221Z,65
2017-02-15T07:44:58.932Z,65
2017-02-15T07:46:09.236Z,70
2017-02-15T07:47:19.540Z,70
2017-02-15T07:48:30.253Z,70
2017-02-15T07:49:40.958Z,75
2017-02-15T07:50:51.694Z,75
2017-02-15T07:52:02.396Z,80
2017-02-15T07:53:13.097Z,80
2017-02-15T07:54:23.399Z,80
2017-02-15T07:55:33.706Z,85
2017-02-15T07:56:44.411Z,85
2017-02-15T07:57:55.149Z,85
2017-02-15T07:59:05.497Z,85
2017-02-15T08:00:16.199Z,90
2017-02-15T08:01:26.925Z,90
2017-02-15T08:02:37.636Z,90
2017-02-15T08:03:48.355Z,95
2017-02-15T08:04:59.065Z,95
2017-02-15T08:06:09.787Z,100
2017-02-15T08:07:20.522Z,100
2017-02-15T08:08:31.223Z,100
2017-02-15T08:09:41.941Z,105
2017-02-15T08:10:52.648Z,105
2017-02-15T08:12:03.344Z,105
2017-02-15T08:13:14.076Z,110
2017-02-15T08:14:24.379Z,115
2017-02-15T08:15:35.093Z,115
2017-02-15T08:16:45.793Z,115
2017-02-15T08:17:56.534Z,120
2017-02-15T08:19:07.237Z,125
2017-02-15T08:20:17.150Z,125
2017-02-15T08:21:27.864Z,130
2017-02-15T08:22:38.584Z,130
2017-02-15T08:23:49.305Z,130
2017-02-15T08:25:00.016Z,130
2017-02-15T08:26:10.734Z,130
2017-02-15T08:27:21.442Z,135
2017-02-15T08:28:32.155Z,140
2017-02-15T08:29:42.876Z,145
2017-02-15T08:30:53.205Z,150
2017-02-15T08:32:03.929Z,155
2017-02-15T08:33:14.658Z,155
2017-02-15T08:34:25.381Z,155
2017-02-15T08:35:36.104Z,155
2017-02-15T08:36:46.806Z,155
2017-02-15T08:37:57.512Z,155
2017-02-15T08:39:08.243Z,160
2017-02-15T08:40:18.959Z,160
2017-02-15T08:41:29.675Z,160
2017-02-15T08:42:40.391Z,160
2017-02-15T08:43:51.102Z,160
2017-02-15T08:45:01.821Z,160
2017-02-15T08:46:11.752Z,160
2017-02-15T08:47:22.050Z,160
2017-02-15T08:48:32.756Z,165
2017-02-15T08:49:43.068Z,165
2017-02-15T08:50:53.778Z,175
2017-02-15T08:52:04.496Z,180
2017-02-15T08:53:15.209Z,175
2017-02-15T08:54:25.539Z,180
2017-02-15T08:55:36.269Z,185
2017-02-15T08:56:46.983Z,195
2017-02-15T08:57:57.698Z,195
2017-02-15T08:59:08.413Z,195
2017-02-15T09:00:19.123Z,200
2017-02-15T09:01:29.833Z,200
2017-02-15T09:02:40.591Z,200
2017-02-15T09:03:51.329Z,215
2017-02-15T09:05:02.052Z,220
2017-02-15T09:06:12.773Z,220
2017-02-15T09:07:23.086Z,225
2017-02-15T09:08:33.795Z,230
2017-02-15T09:09:44.526Z,230
2017-02-15T09:10:55.272Z,235
2017-02-15T09:12:05.990Z,230
2017-02-15T09:13:16.695Z,225
2017-02-15T09:14:27.405Z,225
2017-02-15T09:15:38.125Z,230
2017-02-15T09:16:48.830Z,240
2017-02-15T09:17:59.533Z,230
2017-02-15T09:19:10.261Z,225
2017-02-15T09:20:20.974Z,230
2017-02-15T09:21:31.305Z,240
2017-02-15T09:22:42.034Z,245
2017-02-15T09:23:52.736Z,245
2017-02-15T09:25:03.046Z,245
2017-02-15T09:26:13.786Z,235
2017-02-15T09:27:24.097Z,250
2017-02-15T09:28:34.801Z,260
2017-02-15T09:29:44.716Z,270
2017-02-15T09:30:55.415Z,280
2017-02-15T09:32:06.131Z,280
2017-02-15T09:33:16.854Z,270
2017-02-15T09:34:27.575Z,270
2017-02-15T09:35:38.286Z,265
2017-02-15T09:36:49.008Z,265
2017-02-15T09:37:59.721Z,280
2017-02-15T09:39:10.441Z,280
2017-02-15T09:40:21.165Z,275
2017-02-15T09:41:31.472Z,280
2017-02-15T09:42:42.192Z,275
2017-02-15T09:43:52.911Z,285
2017-02-15T09:45:03.226Z,290
2017-02-15T09:46:13.947Z,275
2017-02-15T09:47:24.262Z,280
2017-02-15T09:48:34.976Z,285
2017-02-15T09:49:45.718Z,280
2017-02-15T09:50:56.055Z,290
2017-02-15T09:52:06.787Z,290
2017-02-15T09:53:17.100Z,290
2017-02-15T09:54:27.804Z,290
2017-02-15T09:55:38.119Z,290
2017-02-15T09:56:48.831Z,290
2017-02-15T09:57:59.564Z,290
2017-02-15T09:59:09.866Z,285
2017-02-15T10:00:20.172Z,295
2017-02-15T10:01:30.885Z,290
2017-02-15T10:02:41.584Z,285
2017-02-15T10:03:52.299Z,290
2017-02-15T10:05:03.011Z,295
2017-02-15T10:06:13.323Z,295
2017-02-15T10:07:24.066Z,300
2017-02-15T10:08:34.785Z,295
2017-02-15T10:09:45.491Z,300
2017-02-15T10:10:55.806Z,300
2017-02-15T10:12:06.131Z,305
2017-02-15T10:13:16.856Z,305
2017-02-15T10:14:27.570Z,305
2017-02-15T10:15:38.290Z,310
2017-02-15T10:16:49.007Z,310
2017-02-15T10:17:59.713Z,315
2017-02-15T10:19:10.461Z,320
2017-02-15T10:20:21.171Z,320
2017-02-15T10:21:31.525Z,320
2017-02-15T10:22:42.250Z,310
2017-02-15T10:23:52.565Z,310
2017-02-15T10:25:03.300Z,310
2017-02-15T10:26:13.629Z,305
2017-02-15T10:27:24.338Z,310
2017-02-15T10:28:35.061Z,315
2017-02-15T10:29:45.794Z,325
2017-02-15T10:30:56.114Z,330
2017-02-15T10:32:06.831Z,335
2017-02-15T10:33:17.158Z,335
2017-02-15T10:34:27.894Z,325
2017-02-15T10:35:38.203Z,335
2017-02-15T10:36:48.936Z,330
2017-02-15T10:37:59.684Z,315
2017-02-15T10:39:10.392Z,315
2017-02-15T10:40:20.717Z,320
2017-02-15T10:41:31.427Z,325
2017-02-15T10:42:42.148Z,335
2017-02-15T10:43:52.860Z,345
2017-02-15T10:45:02.766Z,365
2017-02-15T10:46:13.485Z,375
2017-02-15T10:47:24.226Z,370
2017-02-15T10:48:34.947Z,370
2017-02-15T10:49:45.666Z,365
2017-02-15T10:50:56.379Z,365
2017-02-15T10:52:07.109Z,355
2017-02-15T10:53:17.823Z,360
2017-02-15T10:54:28.533Z,350
2017-02-15T10:55:39.268Z,350
2017-02-15T10:56:49.992Z,345
2017-02-15T10:58:00.707Z,355
2017-02-15T10:59:11.018Z,355
2017-02-15T11:00:21.735Z,355
2017-02-15T11:01:32.039Z,365
2017-02-15T11:02:41.955Z,370
2017-02-15T11:03:52.291Z,365
2017-02-15T11:05:03.017Z,365
2017-02-15T11:06:13.724Z,360
2017-02-15T11:07:24.442Z,365
2017-02-15T11:08:35.152Z,385
2017-02-15T11:09:45.875Z,390
2017-02-15T11:10:56.623Z,375
2017-02-15T11:12:06.935Z,370
2017-02-15T11:13:17.659Z,365
2017-02-15T11:14:28.371Z,360
2017-02-15T11:15:39.083Z,355
2017-02-15T11:16:49.797Z,350
2017-02-15T11:18:00.541Z,350
2017-02-15T11:19:10.052Z,350
2017-02-15T11:20:20.386Z,350
2017-02-15T11:21:31.127Z,345
2017-02-15T11:22:41.458Z,360
2017-02-15T11:23:51.774Z,360
2017-02-15T11:25:02.488Z,350
2017-02-15T11:26:12.014Z,340
2017-02-15T11:27:22.732Z,340
2017-02-15T11:28:33.444Z,330
2017-02-15T11:29:44.158Z,330
2017-02-15T11:30:54.877Z,320
2017-02-15T11:32:05.793Z,310
2017-02-15T11:33:16.133Z,310
2017-02-15T11:34:26.447Z,300
2017-02-15T11:35:37.175Z,285
2017-02-15T11:36:47.898Z,285
2017-02-15T11:37:58.611Z,280
2017-02-15T11:39:08.542Z,280
2017-02-15T11:40:18.461Z,275
2017-02-15T11:41:28.789Z,265
2017-02-15T11:42:39.502Z,265
2017-02-15T11:43:49.826Z,275
2017-02-15T11:45:00.544Z,280
2017-02-15T11:46:11.267Z,280
2017-02-15T11:47:21.985Z,285
2017-02-15T11:48:32.714Z,290
2017-02-15T11:49:43.433Z,300
2017-02-15T11:50:54.170Z,295
2017-02-15T11:52:04.503Z,295
2017-02-15T11:53:15.225Z,290
2017-02-15T11:54:25.930Z,290
2017-02-15T11:55:36.646Z,295
2017-02-15T11:56:47.368Z,300
2017-02-15T11:57:58.082Z,300
2017-02-15T11:59:08.798Z,305
2017-02-15T12:00:19.520Z,305
2017-02-15T12:01:30.248Z,300
2017-02-15T12:02:40.975Z,305
2017-02-15T12:03:51.703Z,295
2017-02-15T12:05:02.419Z,290
2017-02-15T12:06:12.744Z,280
2017-02-15T12:07:22.663Z,280
2017-02-15T12:08:33.366Z,285
2017-02-15T12:09:44.105Z,295
2017-02-15T12:10:54.827Z,295
2017-02-15T12:12:05.555Z,275
2017-02-15T12:13:15.896Z,270
2017-02-15T12:14:26.221Z,280
2017-02-15T12:15:36.955Z,280
2017-02-15T12:16:47.671Z,275
2017-02-15T12:17:58.382Z,275
2017-02-15T12:19:09.132Z,270
2017-02-15T12:20:19.492Z,265
2017-02-15T12:21:30.203Z,265
2017-02-15T12:22:40.519Z,270
2017-02-15T12:23:51.229Z,270
2017-02-15T12:25:01.956Z,275
2017-02-15T12:26:11.873Z,275
2017-02-15T12:27:22.614Z,285
2017-02-15T12:28:33.329Z,295
2017-02-15T12:29:43.244Z,315
2017-02-15T12:30:53.953Z,320
2017-02-15T12:32:04.301Z,325
2017-02-15T12:33:15.026Z,320
2017-02-15T12:34:25.734Z,325
2017-02-15T12:35:36.461Z,330
2017-02-15T12:36:47.192Z,330
2017-02-15T12:37:57.897Z,320
2017-02-15T12:39:08.599Z,315
2017-02-15T12:40:18.920Z,310
2017-02-15T12:41:29.307Z,310
2017-02-15T12:42:40.018Z,315
2017-02-15T12:43:50.729Z,325
2017-02-15T12:45:01.035Z,335
2017-02-15T12:46:11.738Z,345
2017-02-15T12:47:22.042Z,340
2017-02-15T12:48:32.792Z,340
2017-02-15T12:49:43.101Z,335
2017-02-15T12:50:53.433Z,330
2017-02-15T12:52:04.170Z,335
2017-02-15T12:53:14.486Z,330
2017-02-15T12:54:24.457Z,320
2017-02-15T12:55:35.166Z,310
2017-02-15T12:56:45.885Z,310
2017-02-15T12:57:56.203Z,305
2017-02-15T12:59:06.925Z,295
2017-02-15T13:00:17.677Z,295
2017-02-15T13:01:28.391Z,300
2017-02-15T13:02:39.113Z,300
2017-02-15T13:03:49.831Z,305
2017-02-15T13:05:00.536Z,305
2017-02-15T13:06:10.900Z,295
2017-02-15T13:07:21.623Z,285
2017-02-15T13:08:32.339Z,270
2017-02-15T13:09:42.684Z,275
2017-02-15T13:10:53.068Z,275
2017-02-15T13:12:03.391Z,275
2017-02-15T13:13:14.119Z,265
2017-02-15T13:14:24.443Z,260
2017-02-15T13:15:35.177Z,265
2017-02-15T13:16:45.898Z,265
2017-02-15T13:17:56.617Z,260
2017-02-15T13:19:06.939Z,255
2017-02-15T13:20:17.662Z,245
2017-02-15T13:21:28.374Z,245
2017-02-15T13:22:39.119Z,245
2017-02-15T13:23:49.441Z,240
2017-02-15T13:25:00.150Z,230
2017-02-15T13:26:10.474Z,225
2017-02-15T13:27:20.796Z,230
2017-02-15T13:28:31.517Z,230
2017-02-15T13:29:42.232Z,230
2017-02-15T13:30:52.949Z,235
2017-02-15T13:32:03.676Z,240
2017-02-15T13:33:14.453Z,245
2017-02-15T13:34:24.784Z,250
2017-02-15T13:35:35.492Z,250
2017-02-15T13:36:46.213Z,245
2017-02-15T13:37:56.550Z,240
2017-02-15T13:39:07.262Z,245
2017-02-15T13:40:17.587Z,235
2017-02-15T13:41:28.317Z,235
2017-02-15T13:42:39.040Z,235
2017-02-15T13:43:49.776Z,235
2017-02-15T13:45:00.491Z,235
2017-02-15T13:46:10.813Z,230
2017-02-15T13:47:21.530Z,220
2017-02-15T13:48:32.236Z,225
2017-02-15T13:49:42.545Z,220
2017-02-15T13:50:53.264Z,210
2017-02-15T13:52:03.983Z,210
2017-02-15T13:53:14.705Z,200
2017-02-15T13:54:25.426Z,195
2017-02-15T13:55:36.136Z,195
2017-02-15T13:56:46.462Z,195
2017-02-15T13:57:57.186Z,195
2017-02-15T13:59:07.912Z,190
2017-02-15T14:00:17.853Z,190
2017-02-15T14:01:28.167Z,190
2017-02-15T14:02:38.515Z,190
2017-02-15T14:03:49.233Z,185
2017-02-15T14:04:59.948Z,180
2017-02-15T14:06:10.264Z,185
2017-02-15T14:07:20.568Z,190
2017-02-15T14:08:31.299Z,180
2017-02-15T14:09:41.610Z,175
2017-02-15T14:10:52.346Z,170
2017-02-15T14:12:03.079Z,165
2017-02-15T14:13:12.602Z,165
2017-02-15T14:14:22.958Z,165
2017-02-15T14:15:33.676Z,165
2017-02-15T14:16:44.401Z,165
2017-02-15T14:17:55.131Z,160
2017-02-15T14:19:05.856Z,160
2017-02-15T14:20:15.810Z,155
2017-02-15T14:21:26.525Z,160
2017-02-15T14:22:37.252Z,155
2017-02-15T14:23:47.193Z,150
2017-02-15T14:24:57.532Z,150
2017-02-15T14:26:08.244Z,150
2017-02-15T14:27:18.168Z,150
2017-02-15T14:28:28.472Z,150
2017-02-15T14:29:39.256Z,145
2017-02-15T14:30:49.956Z,145
2017-02-15T14:32:00.685Z,140
2017-02-15T14:33:11.020Z,140
2017-02-15T14:34:21.774Z,135
2017-02-15T14:35:32.079Z,135
2017-02-15T14:36:42.794Z,145
2017-02-15T14:37:53.516Z,150
2017-02-15T14:39:03.854Z,150
2017-02-15T14:40:14.576Z,145
2017-02-15T14:41:25.291Z,145
2017-02-15T14:42:36.006Z,140
2017-02-15T14:43:46.704Z,130
2017-02-15T14:44:57.452Z,120
2017-02-15T14:46:07.763Z,115
2017-02-15T14:47:18.478Z,110
2017-02-15T14:48:28.791Z,105
2017-02-15T14:49:39.128Z,100
2017-02-15T14:50:49.469Z,100
2017-02-15T14:52:00.185Z,105
2017-02-15T14:53:10.887Z,100
2017-02-15T14:54:21.194Z,100
2017-02-15T14:55:31.527Z,95
2017-02-15T14:56:41.832Z,95
2017-02-15T14:57:52.555Z,90
2017-02-15T14:59:03.287Z,95
2017-02-15T15:00:13.998Z,90
2017-02-15T15:01:23.910Z,85
2017-02-15T15:02:34.621Z,85
2017-02-15T15:03:45.333Z,85
2017-02-15T15:04:55.653Z,80
2017-02-15T15:06:05.560Z,80
2017-02-15T15:07:16.280Z,80
2017-02-15T15:08:26.980Z,75
2017-02-15T15:09:37.308Z,75
2017-02-15T15:10:48.018Z,75
2017-02-15T15:11:58.724Z,75
2017-02-15T15:13:09.432Z,75
2017-02-15T15:14:19.742Z,70
2017-02-15T15:15:30.463Z,70
2017-02-15T15:16:40.784Z,65
2017-02-15T15:17:51.499Z,65
2017-02-15T15:19:02.209Z,60
2017-02-15T15:20:12.934Z,60
2017-02-15T15:21:23.261Z,60
2017-02-15T15:22:33.973Z,55
2017-02-15T15:23:44.695Z,55
2017-02-15T15:24:55.410Z,50
2017-02-15T15:26:06.125Z,50
2017-02-15T15:27:16.850Z,50
2017-02-15T15:28:27.556Z,45
2017-02-15T15:29:37.895Z,45
2017-02-15T15:30:48.612Z,45
2017-02-15T15:31:59.321Z,40
2017-02-15T15:33:09.625Z,40
2017-02-15T15:34:20.357Z,40
2017-02-15T15:35:31.057Z,40
2017-02-15T15:36:41.769Z,35
2017-02-15T15:37:52.090Z,35
2017-02-15T15:39:02.803Z,35
2017-02-15T15:40:13.541Z,35
2017-02-15T15:41:23.858Z,30
2017-02-15T15:42:34.583Z,30
2017-02-15T15:43:45.309Z,30
2017-02-15T15:44:56.030Z,30
2017-02-15T15:46:06.751Z,25
2017-02-15T15:47:17.481Z,25
2017-02-15T15:48:28.199Z,25
2017-02-15T15:49:38.928Z,25
2017-02-15T15:50:49.636Z,20
2017-02-15T15:51:59.952Z,20
2017-02-15T15:53:10.667Z,20
2017-02-15T15:54:21.384Z,20
2017-02-15T15:55:32.167Z,15
2017-02-15T15:56:42.491Z,15
2017-02-15T15:57:53.229Z,15
2017-02-15T15:59:03.957Z,15
2017-02-15T16:00:14.663Z,10
2017-02-15T16:01:25.381Z,10
2017-02-15T16:02:36.086Z,10
2017-02-15T16:03:46.899Z,10
2017-02-15T16:04:57.620Z,10
2017-02-15T16:06:07.949Z,5
2017-02-15T16:07:18.653Z,5
2017-02-15T16:08:29.375Z,5
2017-02-15T16:09:39.678Z,5
2017-02-15T16:10:50.393Z,5
2017-02-15T16:12:01.103Z,5
2017-02-15T16:13:11.421Z,5
2017-02-15T16:14:22.143Z,5
2017-02-15T16:15:32.850Z,0
2017-02-15T16:16:43.550Z,0
2017-02-15T16:17:54.278Z,0
2017-02-15T16:19:04.602Z,0
2017-02-15T16:20:15.322Z,0
2017-02-15T16:21:26.038Z,0
2017-02-15T16:22:36.737Z,0
2017-02-15T16:23:47.462Z,0
2017-02-15T16:24:58.174Z,0
2017-02-15T16:26:08.897Z,0
2017-02-15T16:27:19.224Z,0
2017-02-15T16:28:29.534Z,0
2017-02-15T16:29:39.862Z,0
2017-02-15T16:30:50.179Z,0
2017-02-15T16:32:00.909Z,0
2017-02-15T16:33:11.634Z,0
2017-02-15T16:34:21.941Z,0
2017-02-15T16:35:32.652Z,0
2017-02-15T16:36:42.958Z,0
2017-02-15T16:37:53.685Z,0
2017-02-15T16:39:04.422Z,0
2017-02-15T16:40:14.746Z,0
2017-02-15T16:41:25.455Z,0
2017-02-15T16:42:36.160Z,0
2017-02-15T16:43:46.866Z,0
2017-02-15T16:44:57.192Z,0
2017-02-15T16:46:07.904Z,0
2017-02-15T16:47:17.842Z,0
2017-02-15T16:48:28.561Z,0